METAR Data
IDs: Format: Raw Decoded Include TAF

Data at: 0834 UTC 13 Aug 2022

KARB 130753Z AUTO 00000KT 10SM CLR 10/09 A3018 RMK AO2 SLP219 T01000094